Time;durP1;ratioP1;P1;durP2;ratioP2;P2;SDS_P1;SDS_P2;PMS_P1;PMS_P2;Temp;Humidity;BMP_temperature;BMP_pressure;BME280_temperature;BME280_humidity;BME280_pressure;Samples;Min_cycle;Max_cycle;Signal;HPM_P1;HPM_P2
2022/06/03 00:01:43;;;;;;;2.4;1.2;;;;;;;;;;;;;-81
2022/06/03 00:03:57;;;;;;;;;;;;;;;13.8;53.0918;102198.6;;;;-82
2022/06/03 00:09:06;;;;;;;;;;;;;;;13.75;53.11914;102196.5;;;;-84
2022/06/03 00:13:59;;;;;;;;;;;;;;;13.7;52.92285;102192.6;;;;-83
2022/06/03 00:18:57;;;;;;;;;;;;;;;13.67;53.17676;102187.8;;;;-84
2022/06/03 00:24:01;;;;;;;;;;;;;;;13.61;53.00195;102184.4;;;;-84
2022/06/03 00:29:03;;;;;;;;;;;;;;;13.58;52.93164;102187.2;;;;-82
2022/06/03 00:31:44;;;;;;;3.4;1.3;;;;;;;;;;;;;-82
2022/06/03 00:33:56;;;;;;;;;;;;;;;13.54;52.85938;102183.3;;;;-84
2022/06/03 00:39:01;;;;;;;;;;;;;;;13.46;52.94922;102184.5;;;;-84
2022/06/03 00:43:57;;;;;;;;;;;;;;;13.43;52.86719;102182;;;;-84
2022/06/03 00:48:53;;;;;;;;;;;;;;;13.4;52.70703;102179;;;;-82
2022/06/03 00:53:49;;;;;;;;;;;;;;;13.33;53.30469;102172.8;;;;-83
2022/06/03 00:59:05;;;;;;;;;;;;;;;13.26;53.44141;102174.1;;;;-82
2022/06/03 01:01:45;;;;;;;1.8;1.1;;;;;;;;;;;;;-83
2022/06/03 01:04:00;;;;;;;;;;;;;;;13.2;53.89551;102172;;;;-83
2022/06/03 01:08:54;;;;;;;;;;;;;;;13.21;53.52637;102169.3;;;;-85
2022/06/03 01:14:06;;;;;;;;;;;;;;;13.18;53.76855;102166.2;;;;-84
2022/06/03 01:18:52;;;;;;;;;;;;;;;13.13;53.63965;102170.5;;;;-82
2022/06/03 01:24:02;;;;;;;;;;;;;;;13.08;54.09375;102170.9;;;;-84
2022/06/03 01:29:10;;;;;;;;;;;;;;;13.05;54.87402;102165;;;;-82
2022/06/03 01:31:55;;;;;;;3.6;1.3;;;;;;;;;;;;;-84
2022/06/03 01:35:23;;;;;;;;;;;;;;;12.98;54.56348;102152.1;;;;-84
2022/06/03 01:45:17;;;;;;;;;;;;;;;;;;;;;
2022/06/03 01:54:17;;;;;;;;;;;;;;;12.92;54.28613;102150;;;;-82
2022/06/03 01:59:15;;;;;;;;;;;;;;;12.84;54.35547;102137.1;;;;-83
2022/06/03 02:01:48;;;;;;;4.1;1.7;;;;;;;;;;;;;-82
2022/06/03 02:04:14;;;;;;;;;;;;;;;12.86;55.1084;102143.3;;;;-83
2022/06/03 02:09:19;;;;;;;;;;;;;;;12.82;54.43066;102133.6;;;;-85
2022/06/03 02:14:28;;;;;;;;;;;;;;;12.78;54.89648;102130;;;;-84
2022/06/03 02:19:13;;;;;;;;;;;;;;;12.74;54.9375;102118.4;;;;-83
2022/06/03 02:24:13;;;;;;;;;;;;;;;12.7;54.79688;102115.5;;;;-84
2022/06/03 02:36:34;;;;;;;;;;;;;;;12.63;55.37012;102107.7;;;;-84
2022/06/03 02:41:26;;;;;;;;;;;;;;;12.62;55.22461;102098.9;;;;-82
2022/06/03 02:46:25;;;;;;;;;;;;;;;12.61;55.7041;102099.5;;;;-83
2022/06/03 02:51:22;;;;;;;;;;;;;;;12.61;55.2998;102101;;;;-82
2022/06/03 02:56:20;;;;;;;;;;;;;;;12.59;55.55664;102102.6;;;;-83
2022/06/03 03:01:28;;;;;;;;;;;;;;;12.57;55.82324;102106.9;;;;-84
2022/06/03 03:01:51;;;;;;;2.9;1.5;;;;;;;;;;;;;-82
2022/06/03 03:06:24;;;;;;;;;;;;;;;12.56;55.59668;102111.5;;;;-83
2022/06/03 03:11:28;;;;;;;;;;;;;;;12.55;55.18066;102116.3;;;;-83
2022/06/03 03:16:27;;;;;;;;;;;;;;;12.55;55.20313;102117.8;;;;-83
2022/06/03 03:21:36;;;;;;;;;;;;;;;12.53;55.08887;102115.6;;;;-84
2022/06/03 03:26:18;;;;;;;;;;;;;;;12.51;55.28809;102117;;;;-85
2022/06/03 03:31:27;;;;;;;;;;;;;;;12.47;55.07129;102114.9;;;;-83
2022/06/03 03:31:57;;;;;;;2.6;1.6;;;;;;;;;;;;;-83
2022/06/03 03:36:27;;;;;;;;;;;;;;;12.45;54.98926;102113.3;;;;-83
2022/06/03 03:41:27;;;;;;;;;;;;;;;12.43;55.00977;102104.5;;;;-83
2022/06/03 03:46:26;;;;;;;;;;;;;;;12.4;55.07324;102105.2;;;;-82
2022/06/03 03:51:23;;;;;;;;;;;;;;;12.4;55.30859;102096.2;;;;-83
2022/06/03 03:56:31;;;;;;;;;;;;;;;12.41;55.0293;102090.5;;;;-85
2022/06/03 04:01:30;;;;;;;;;;;;;;;12.44;55.05566;102084.7;;;;-83
2022/06/03 04:02:05;;;;;;;3.6;1.8;;;;;;;;;;;;;-83
2022/06/03 04:06:34;;;;;;;;;;;;;;;12.51;55.09766;102085;;;;-82
2022/06/03 04:11:33;;;;;;;;;;;;;;;12.54;55.06934;102083.4;;;;-82
2022/06/03 04:16:28;;;;;;;;;;;;;;;12.6;55.24414;102082.5;;;;-83
2022/06/03 04:21:33;;;;;;;;;;;;;;;12.66;56.11328;102075.8;;;;-84
2022/06/03 04:26:27;;;;;;;;;;;;;;;12.72;55.59473;102077.6;;;;-80
2022/06/03 04:31:26;;;;;;;;;;;;;;;12.74;55.85645;102075.6;;;;-83
2022/06/03 04:31:53;;;;;;;4.5;1.9;;;;;;;;;;;;;-84
2022/06/03 04:36:27;;;;;;;;;;;;;;;12.78;55.19824;102067.4;;;;-83
2022/06/03 04:41:24;;;;;;;;;;;;;;;12.78;55.35547;102059.7;;;;-82
2022/06/03 04:46:28;;;;;;;;;;;;;;;12.79;55.45703;102063.2;;;;-82
2022/06/03 04:51:28;;;;;;;;;;;;;;;12.78;55.25488;102062;;;;-84
2022/06/03 04:56:34;;;;;;;;;;;;;;;12.78;55.28906;102057.3;;;;-83
2022/06/03 05:01:38;;;;;;;;;;;;;;;12.76;55.1748;102050.1;;;;-84
2022/06/03 05:02:04;;;;;;;4;1.7;;;;;;;;;;;;;-84
2022/06/03 05:06:33;;;;;;;;;;;;;;;12.77;56.04883;102051.5;;;;-83
2022/06/03 05:11:24;;;;;;;;;;;;;;;12.79;55.94141;102050.4;;;;-85
2022/06/03 05:16:37;;;;;;;;;;;;;;;12.88;57.0498;102049.9;;;;-83
2022/06/03 05:21:33;;;;;;;;;;;;;;;13.13;56.29688;102049.2;;;;-83
2022/06/03 05:26:25;;;;;;;;;;;;;;;13.65;55.0957;102047.4;;;;-84
2022/06/03 05:31:24;;;;;;;;;;;;;;;14.36;53.71191;102049.2;;;;-85
2022/06/03 05:31:55;;;;;;;4.1;1.8;;;;;;;;;;;;;-83
2022/06/03 05:36:24;;;;;;;;;;;;;;;15.13;52.2168;102048.9;;;;-82
2022/06/03 05:46:25;;;;;;;;;;;;;;;16.49;49.93262;102057.2;;;;-82
2022/06/03 05:51:17;;;;;;;;;;;;;;;17.1;48.86914;102055.2;;;;-83
2022/06/03 05:56:24;;;;;;;;;;;;;;;17.67;48.01367;102058.2;;;;-83
2022/06/03 06:01:30;;;;;;;;;;;;;;;18.13;47.33496;102051.3;;;;-83
2022/06/03 06:02:06;;;;;;;2.9;1.7;;;;;;;;;;;;;-81
2022/06/03 06:06:25;;;;;;;;;;;;;;;18.54;46.94629;102052.5;;;;-84
2022/06/03 06:11:25;;;;;;;;;;;;;;;18.93;46.50879;102051.3;;;;-81
2022/06/03 06:16:14;;;;;;;;;;;;;;;19.33;45.83203;102049.8;;;;-83
2022/06/03 06:21:38;;;;;;;;;;;;;;;19.77;45.23828;102057.7;;;;-84
2022/06/03 06:26:23;;;;;;;;;;;;;;;20.21;44.74707;102051.3;;;;-82
2022/06/03 06:31:28;;;;;;;;;;;;;;;20.51;44.30664;102050.6;;;;-84
2022/06/03 06:32:06;;;;;;;3.7;1.9;;;;;;;;;;;;;-81
2022/06/03 06:36:24;;;;;;;;;;;;;;;20.8;43.94629;102056;;;;-83
2022/06/03 06:41:23;;;;;;;;;;;;;;;21.11;43.55469;102060.8;;;;-81
2022/06/03 06:46:18;;;;;;;;;;;;;;;21.45;43.26563;102059.5;;;;-83
2022/06/03 06:51:19;;;;;;;;;;;;;;;21.78;42.79199;102064;;;;-84
2022/06/03 06:56:19;;;;;;;;;;;;;;;22.04;42.57617;102053.8;;;;-83
2022/06/03 07:01:15;;;;;;;;;;;;;;;22.31;42.16406;102056.4;;;;-83
2022/06/03 07:01:58;;;;;;;4.3;2;;;;;;;;;;;;;-84
2022/06/03 07:06:26;;;;;;;;;;;;;;;22.53;41.86426;102057.4;;;;-83
2022/06/03 07:11:17;;;;;;;;;;;;;;;22.74;41.49219;102044.3;;;;-82
2022/06/03 07:19:47;;;;;;;;;;;;;;;22.9;41.26563;102045.6;;;;-84
2022/06/03 07:21:17;;;;;;;;;;;;;;;23.04;40.94434;102034.3;;;;-83
2022/06/03 07:26:15;;;;;;;;;;;;;;;23.18;40.7959;102028.8;;;;-85
2022/06/03 07:31:18;;;;;;;;;;;;;;;23.26;40.62988;102021.2;;;;-84
2022/06/03 07:31:57;;;;;;;4.6;2.1;;;;;;;;;;;;;-83
2022/06/03 07:36:21;;;;;;;;;;;;;;;23.4;40.52734;102028.4;;;;-82
2022/06/03 07:41:18;;;;;;;;;;;;;;;23.55;40.44922;102034.7;;;;-84
2022/06/03 07:46:16;;;;;;;;;;;;;;;23.67;40.30957;102026.8;;;;-84
2022/06/03 07:51:19;;;;;;;;;;;;;;;23.76;40.17969;102036.7;;;;-85
2022/06/03 07:56:13;;;;;;;;;;;;;;;23.84;40.09375;102035.3;;;;-85
2022/06/03 08:01:23;;;;;;;;;;;;;;;23.92;39.98535;102036.9;;;;-86
2022/06/03 08:02:07;;;;;;;3.2;2.1;;;;;;;;;;;;;-84
2022/06/03 08:06:15;;;;;;;;;;;;;;;24;39.85547;102031.9;;;;-83
2022/06/03 08:11:15;;;;;;;;;;;;;;;24.13;39.68164;102021.4;;;;-83
2022/06/03 08:16:18;;;;;;;;;;;;;;;24.29;39.66113;102021.1;;;;-85
2022/06/03 08:21:15;;;;;;;;;;;;;;;24.36;39.57422;102021.5;;;;-86
2022/06/03 08:26:19;;;;;;;;;;;;;;;24.45;39.52441;102026.5;;;;-85
2022/06/03 08:31:16;;;;;;;;;;;;;;;24.54;39.53223;102015.6;;;;-85
2022/06/03 08:32:00;;;;;;;3.5;2.2;;;;;;;;;;;;;-84
2022/06/03 08:36:20;;;;;;;;;;;;;;;24.69;39.33691;102015.2;;;;-86
2022/06/03 08:41:19;;;;;;;;;;;;;;;24.83;39.22266;102015.8;;;;-86
2022/06/03 08:46:23;;;;;;;;;;;;;;;25.05;38.92969;102004.4;;;;-83
2022/06/03 08:51:15;;;;;;;;;;;;;;;25.26;38.56445;102009.4;;;;-81
2022/06/03 08:56:17;;;;;;;;;;;;;;;25.39;38.35645;102003.3;;;;-83
2022/06/03 09:01:17;;;;;;;;;;;;;;;25.55;38.17285;101996.9;;;;-84
2022/06/03 09:02:04;;;;;;;4.3;2.4;;;;;;;;;;;;;-83
2022/06/03 09:06:16;;;;;;;;;;;;;;;25.68;37.96387;101981.7;;;;-83
2022/06/03 09:11:18;;;;;;;;;;;;;;;25.8;37.6377;101979.4;;;;-84
2022/06/03 09:16:21;;;;;;;;;;;;;;;25.98;37.35059;101976;;;;-83
2022/06/03 09:21:27;;;;;;;;;;;;;;;26.19;37.07813;101977.1;;;;-82
2022/06/03 09:26:28;;;;;;;;;;;;;;;26.34;36.99805;101981.2;;;;-86
2022/06/03 09:31:16;;;;;;;;;;;;;;;26.48;36.74121;101970.4;;;;-83
2022/06/03 09:32:07;;;;;;;5.7;2.5;;;;;;;;;;;;;-84
2022/06/03 09:36:18;;;;;;;;;;;;;;;26.63;36.55566;101974.4;;;;-84
2022/06/03 09:41:14;;;;;;;;;;;;;;;26.77;36.21875;101973.8;;;;-81
2022/06/03 09:46:16;;;;;;;;;;;;;;;26.93;36.05664;101968.3;;;;-84
2022/06/03 09:51:55;;;;;;;;;;;;;;;27.07;35.6377;101973.3;;;;-84
2022/06/03 09:56:19;;;;;;;;;;;;;;;27.19;35.42578;101975.6;;;;-81
2022/06/03 10:01:19;;;;;;;;;;;;;;;27.38;35.19629;101974;;;;-82
2022/06/03 10:02:12;;;;;;;8.5;2;;;;;;;;;;;;;-81
2022/06/03 10:06:43;;;;;;;;;;;;;;;27.63;35.06348;101985.2;;;;-83
2022/06/03 10:16:14;;;;;;;;;;;;;;;28;34.54492;101980.7;;;;-83
2022/06/03 10:21:25;;;;;;;;;;;;;;;28.14;34.11133;101978;;;;-83
2022/06/03 10:26:25;;;;;;;;;;;;;;;28.25;33.87402;101977;;;;-81
2022/06/03 10:31:17;;;;;;;;;;;;;;;28.37;33.71973;101963.5;;;;-81
2022/06/03 10:32:16;;;;;;;3.9;2;;;;;;;;;;;;;-81
2022/06/03 10:36:19;;;;;;;;;;;;;;;28.48;33.66992;101970;;;;-83
2022/06/03 10:41:13;;;;;;;;;;;;;;;28.63;33.4707;101960.8;;;;-84
2022/06/03 10:46:17;;;;;;;;;;;;;;;28.81;33.29688;101953;;;;-84
2022/06/03 11:01:23;;;;;;;;;;;;;;;29.22;32.91699;101946.2;;;;-84
2022/06/03 11:02:18;;;;;;;3.2;1.6;;;;;;;;;;;;;-83
2022/06/03 11:11:14;;;;;;;;;;;;;;;29.38;32.46094;101935.2;;;;-85
2022/06/03 11:16:28;;;;;;;;;;;;;;;29.49;32.81934;101934.2;;;;-84
2022/06/03 11:21:29;;;;;;;;;;;;;;;29.75;32.97949;101927.4;;;;-85
2022/06/03 11:26:14;;;;;;;;;;;;;;;30.08;32.67578;101926;;;;-83
2022/06/03 11:31:18;;;;;;;;;;;;;;;30.29;32.33789;101920.6;;;;-84
2022/06/03 11:32:22;;;;;;;5.1;1.6;;;;;;;;;;;;;-83
2022/06/03 11:36:17;;;;;;;;;;;;;;;30.39;32.22754;101923.8;;;;-84
2022/06/03 11:41:26;;;;;;;;;;;;;;;30.46;31.99805;101915.7;;;;-84
2022/06/03 12:06:18;;;;;;;;;;;;;;;30.8;31.29297;101926.8;;;;-84
2022/06/03 12:55:42;;;;;;;;;;;;;;;28.05;28.55664;101930.7;;;;-75
2022/06/03 13:00:51;;;;;;;;;;;;;;;27.59;29.40332;101921.8;;;;-77
2022/06/03 13:02:43;;;;;;;4.3;1.8;;;;;;;;;;;;;-77
2022/06/03 13:05:45;;;;;;;;;;;;;;;27.47;28.78809;101924.3;;;;-77
2022/06/03 13:10:55;;;;;;;;;;;;;;;27.48;29.01172;101921.8;;;;-78
2022/06/03 13:15:55;;;;;;;;;;;;;;;27.36;28.81641;101933.6;;;;-77
2022/06/03 13:20:44;;;;;;;;;;;;;;;27.18;28.67676;101924.6;;;;-76
2022/06/03 13:25:46;;;;;;;;;;;;;;;26.99;29.36426;101927.5;;;;-76
2022/06/03 13:30:42;;;;;;;;;;;;;;;27.07;29.2998;101930.5;;;;-74
2022/06/03 13:32:58;;;;;;;4.3;2;;;;;;;;;;;;;-74
2022/06/03 13:35:53;;;;;;;;;;;;;;;27.1;29.08008;101919.7;;;;-74
2022/06/03 13:42:57;;;;;;;;;;;;;;;27.36;28.99219;101916.8;;;;-74
2022/06/03 13:45:55;;;;;;;;;;;;;;;27.38;28.8291;101909.8;;;;-74
2022/06/03 13:50:41;;;;;;;;;;;;;;;27.34;28.54688;101912.2;;;;-75
2022/06/03 14:00:44;;;;;;;;;;;;;;;27.43;28.05078;101911.9;;;;-77
2022/06/03 14:02:45;;;;;;;4;2;;;;;;;;;;;;;-73
2022/06/03 14:05:43;;;;;;;;;;;;;;;27.31;27.97363;101906.1;;;;-74
2022/06/03 14:10:45;;;;;;;;;;;;;;;27.38;27.63965;101904.8;;;;-73
2022/06/03 14:15:42;;;;;;;;;;;;;;;27.28;27.67969;101906.5;;;;-73
2022/06/03 14:20:45;;;;;;;;;;;;;;;26.83;28.29395;101901.6;;;;-74
2022/06/03 14:25:43;;;;;;;;;;;;;;;26.91;28.37988;101903.1;;;;-73
2022/06/03 14:30:49;;;;;;;;;;;;;;;27.09;28.32129;101903.6;;;;-74
2022/06/03 14:32:49;;;;;;;3.2;1.6;;;;;;;;;;;;;-73
2022/06/03 14:35:43;;;;;;;;;;;;;;;27.03;28.1543;101896.6;;;;-75
2022/06/03 14:40:44;;;;;;;;;;;;;;;27.06;28.0625;101900.4;;;;-73
2022/06/03 14:45:45;;;;;;;;;;;;;;;27.24;27.75879;101909.6;;;;-75
2022/06/03 14:50:46;;;;;;;;;;;;;;;27.16;27.84668;101911;;;;-75
2022/06/03 14:55:44;;;;;;;;;;;;;;;27.17;27.92969;101911.9;;;;-75
2022/06/03 15:00:56;;;;;;;;;;;;;;;27.21;28.24707;101900.5;;;;-75
2022/06/03 15:02:54;;;;;;;2.6;1.6;;;;;;;;;;;;;-73
2022/06/03 15:05:46;;;;;;;;;;;;;;;27.09;28.57715;101904.4;;;;-73
2022/06/03 15:10:44;;;;;;;;;;;;;;;27.04;28.69141;101906;;;;-79
2022/06/03 15:15:42;;;;;;;;;;;;;;;27.12;27.9502;101909.6;;;;-74
2022/06/03 15:20:41;;;;;;;;;;;;;;;26.99;28.4082;101906.7;;;;-76
2022/06/03 15:25:44;;;;;;;;;;;;;;;26.94;28.5918;101912.7;;;;-77
2022/06/03 15:30:43;;;;;;;;;;;;;;;26.8;28.74609;101910.8;;;;-76
2022/06/03 15:32:55;;;;;;;3.5;1.9;;;;;;;;;;;;;-77
2022/06/03 15:35:41;;;;;;;;;;;;;;;26.61;29.1416;101915.6;;;;-76
2022/06/03 15:40:41;;;;;;;;;;;;;;;26.6;28.94238;101918.6;;;;-80
2022/06/03 15:45:47;;;;;;;;;;;;;;;26.57;28.62598;101917.9;;;;-76
2022/06/03 15:50:42;;;;;;;;;;;;;;;26.74;28.89355;101919.7;;;;-75
2022/06/03 15:55:45;;;;;;;;;;;;;;;26.67;29.21582;101921.7;;;;-72
2022/06/03 16:00:45;;;;;;;;;;;;;;;26.64;29.44629;101916;;;;-73
2022/06/03 16:03:03;;;;;;;3.1;1.7;;;;;;;;;;;;;-75
2022/06/03 16:05:52;;;;;;;;;;;;;;;26.54;29.28906;101909;;;;-72
2022/06/03 16:10:45;;;;;;;;;;;;;;;26.31;30.8916;101904.7;;;;-75
2022/06/03 16:15:48;;;;;;;;;;;;;;;26.05;32.72266;101900;;;;-73
2022/06/03 16:20:45;;;;;;;;;;;;;;;25.9;33.87305;101896.3;;;;-73
2022/06/03 16:25:49;;;;;;;;;;;;;;;25.69;34.50684;101904.3;;;;-73
2022/06/03 16:30:45;;;;;;;;;;;;;;;25.4;35.36621;101897.3;;;;-75
2022/06/03 16:33:05;;;;;;;3.5;1.6;;;;;;;;;;;;;-76
2022/06/03 16:35:45;;;;;;;;;;;;;;;25.46;35.99707;101907.8;;;;-74
2022/06/03 16:40:46;;;;;;;;;;;;;;;25.05;36.63672;101909;;;;-75
2022/06/03 16:50:44;;;;;;;;;;;;;;;24.53;37.72852;101906.2;;;;-73
2022/06/03 16:55:52;;;;;;;;;;;;;;;24.32;38.26563;101901.8;;;;-74
2022/06/03 17:00:51;;;;;;;;;;;;;;;24.17;38.30957;101910.8;;;;-74
2022/06/03 17:03:09;;;;;;;4;1.6;;;;;;;;;;;;;-74
2022/06/03 17:05:48;;;;;;;;;;;;;;;23.99;38.69824;101914.2;;;;-74
2022/06/03 17:10:43;;;;;;;;;;;;;;;23.73;39.01172;101913.8;;;;-75
2022/06/03 17:15:41;;;;;;;;;;;;;;;23.49;39.25488;101917.4;;;;-75
2022/06/03 17:20:53;;;;;;;;;;;;;;;23.28;39.21484;101911.7;;;;-75
2022/06/03 17:25:44;;;;;;;;;;;;;;;23.07;39.58691;101919.6;;;;-75
2022/06/03 17:30:42;;;;;;;;;;;;;;;22.74;39.52344;101925;;;;-75
2022/06/03 17:33:15;;;;;;;5.2;1.5;;;;;;;;;;;;;-75
2022/06/03 17:35:43;;;;;;;;;;;;;;;22.47;39.76465;101923.4;;;;-77
2022/06/03 17:40:53;;;;;;;;;;;;;;;22.13;40.50488;101922.7;;;;-75
2022/06/03 17:45:48;;;;;;;;;;;;;;;22.17;40.69238;101934.4;;;;-77
2022/06/03 17:55:19;;;;;;;;;;;;;;;22.68;38.80469;101929.8;;;;-86
2022/06/03 17:55:57;;;;;;;;;;;;;;;22.94;37.83594;101940.1;;;;-87
2022/06/03 18:01:01;;;;;;;;;;;;;;;23;37.2998;101935.9;;;;-86
2022/06/03 18:03:26;;;;;;;3.2;1.2;;;;;;;;;;;;;-85
2022/06/03 18:15:10;;;;;;;;;;;;;;;22.83;37.06641;101938.1;;;;-85
2022/06/03 18:32:43;;;;;;;;;;;;;;;22.53;37.49121;101952.3;;;;-82
2022/06/03 18:33:23;;;;;;;3.2;1.2;;;;;;;;;;;;;-81
2022/06/03 18:37:34;;;;;;;;;;;;;;;22.47;37.2666;101952.5;;;;-82
2022/06/03 18:52:34;;;;;;;;;;;;;;;22.12;37.59375;101951.4;;;;-84
2022/06/03 18:57:30;;;;;;;;;;;;;;;21.94;37.83203;101953.4;;;;-83
2022/06/03 19:02:30;;;;;;;;;;;;;;;21.74;38.02246;101953.8;;;;-84
2022/06/03 19:03:36;;;;;;;2.5;1.2;;;;;;;;;;;;;-85
2022/06/03 19:07:29;;;;;;;;;;;;;;;21.54;38.29199;101957.8;;;;-83
2022/06/03 19:12:25;;;;;;;;;;;;;;;21.33;38.52637;101961.6;;;;-84
2022/06/03 19:17:29;;;;;;;;;;;;;;;21.17;38.59277;101971.4;;;;-85
2022/06/03 19:22:30;;;;;;;;;;;;;;;20.96;38.82715;101961.4;;;;-85
2022/06/03 19:27:30;;;;;;;;;;;;;;;20.73;39.18652;101963.8;;;;-83
2022/06/03 19:32:26;;;;;;;;;;;;;;;20.5;39.48633;101974.5;;;;-83
2022/06/03 19:33:22;;;;;;;2.6;1.2;;;;;;;;;;;;;-84
2022/06/03 19:37:33;;;;;;;;;;;;;;;20.29;39.66309;101981.5;;;;-84
2022/06/03 19:42:27;;;;;;;;;;;;;;;20.13;39.69336;101986;;;;-88
2022/06/03 19:47:29;;;;;;;;;;;;;;;19.95;40.00879;101995.9;;;;-85
2022/06/03 19:52:26;;;;;;;;;;;;;;;19.73;40.5498;102005;;;;-84
2022/06/03 19:57:25;;;;;;;;;;;;;;;19.55;41.18555;102005.7;;;;-83
2022/06/03 20:02:26;;;;;;;;;;;;;;;19.32;41.7002;102020.3;;;;-82
2022/06/03 20:03:35;;;;;;;3.8;1.1;;;;;;;;;;;;;-83
2022/06/03 20:07:26;;;;;;;;;;;;;;;19.12;42.28711;102029.6;;;;-83
2022/06/03 20:17:21;;;;;;;;;;;;;;;18.88;42.37793;102041.5;;;;-82
2022/06/03 20:22:27;;;;;;;;;;;;;;;18.73;42.73926;102051.4;;;;-82
2022/06/03 20:27:29;;;;;;;;;;;;;;;18.59;43.0918;102068.2;;;;-83
2022/06/03 20:32:28;;;;;;;;;;;;;;;18.45;43.22559;102072.5;;;;-81
2022/06/03 20:33:35;;;;;;;2.6;1.4;;;;;;;;;;;;;-83
2022/06/03 20:37:32;;;;;;;;;;;;;;;18.28;43.95996;102075.9;;;;-83
2022/06/03 20:42:34;;;;;;;;;;;;;;;18.12;43.98926;102076.2;;;;-83
2022/06/03 20:47:34;;;;;;;;;;;;;;;18.02;44.12695;102088.8;;;;-82
2022/06/03 20:52:30;;;;;;;;;;;;;;;17.91;44.35547;102101.2;;;;-83
2022/06/03 20:57:39;;;;;;;;;;;;;;;17.78;44.92188;102099.6;;;;-82
2022/06/03 21:02:31;;;;;;;;;;;;;;;17.59;45.40234;102106.3;;;;-83
2022/06/03 21:17:20;;;;;;;;;;;;;;;17.3;45.58887;102127.7;;;;-83
2022/06/03 21:22:22;;;;;;;;;;;;;;;17.19;45.77051;102132.8;;;;-84
2022/06/03 21:27:23;;;;;;;;;;;;;;;17.06;46.32422;102132;;;;-84
2022/06/03 21:32:25;;;;;;;;;;;;;;;16.99;46.30566;102138.7;;;;-82
2022/06/03 21:33:35;;;;;;;2.8;1.5;;;;;;;;;;;;;-82
2022/06/03 21:37:26;;;;;;;;;;;;;;;16.87;46.64453;102151.1;;;;-82
2022/06/03 21:42:26;;;;;;;;;;;;;;;16.81;46.8418;102156.8;;;;-82
2022/06/03 21:47:25;;;;;;;;;;;;;;;16.72;46.74121;102158.8;;;;-82
2022/06/03 21:52:31;;;;;;;;;;;;;;;16.61;47.17285;102160.6;;;;-82
2022/06/03 21:57:22;;;;;;;;;;;;;;;16.5;47.68066;102171.6;;;;-81
2022/06/03 22:02:21;;;;;;;;;;;;;;;16.41;47.79688;102176.4;;;;-83
2022/06/03 22:03:32;;;;;;;3.5;1.7;;;;;;;;;;;;;-82
2022/06/03 22:07:20;;;;;;;;;;;;;;;16.34;48.19531;102161.2;;;;-81
2022/06/03 22:17:20;;;;;;;;;;;;;;;16.14;48.1748;102174.2;;;;-82
2022/06/03 22:22:20;;;;;;;;;;;;;;;16.09;48.28125;102174.5;;;;-82
2022/06/03 22:27:29;;;;;;;;;;;;;;;16.03;48.65918;102192;;;;-81
2022/06/03 22:32:23;;;;;;;;;;;;;;;15.96;48.85547;102191.5;;;;-81
2022/06/03 22:33:40;;;;;;;3.4;1.6;;;;;;;;;;;;;-82
2022/06/03 22:42:27;;;;;;;;;;;;;;;15.81;49.39355;102193.2;;;;-82
2022/06/03 22:47:20;;;;;;;;;;;;;;;15.73;49.48633;102189.2;;;;-84
2022/06/03 22:52:20;;;;;;;;;;;;;;;15.66;49.71484;102193;;;;-83
2022/06/03 22:57:20;;;;;;;;;;;;;;;15.57;50.33691;102187.5;;;;-84
2022/06/03 23:02:20;;;;;;;;;;;;;;;15.47;50.37109;102184.9;;;;-81
2022/06/03 23:03:36;;;;;;;3.1;1.9;;;;;;;;;;;;;-82
2022/06/03 23:07:20;;;;;;;;;;;;;;;15.41;50.55664;102176.2;;;;-81
2022/06/03 23:12:20;;;;;;;;;;;;;;;15.3;51.06348;102186.5;;;;-82
2022/06/03 23:17:20;;;;;;;;;;;;;;;15.24;51.10059;102184.5;;;;-83
2022/06/03 23:22:23;;;;;;;;;;;;;;;15.14;51.46191;102183.9;;;;-83
2022/06/03 23:27:21;;;;;;;;;;;;;;;15.07;51.35156;102179;;;;-84
2022/06/03 23:32:20;;;;;;;;;;;;;;;14.96;52.16309;102183.8;;;;-81
2022/06/03 23:33:37;;;;;;;4.6;1.9;;;;;;;;;;;;;-82
2022/06/03 23:37:21;;;;;;;;;;;;;;;14.88;52.45703;102188.5;;;;-81
2022/06/03 23:47:23;;;;;;;;;;;;;;;14.76;52.74609;102183.9;;;;-81
2022/06/03 23:52:21;;;;;;;;;;;;;;;14.66;53.33105;102184.9;;;;-81
2022/06/03 23:57:26;;;;;;;;;;;;;;;14.57;53.29785;102184.6;;;;-82
